Time;durP1;ratioP1;P1;durP2;ratioP2;P2;SDS_P1;SDS_P2;PMS_P1;PMS_P2;Temp;Humidity;BMP_temperature;BMP_pressure;BME280_temperature;BME280_humidity;BME280_pressure;Samples;Min_cycle;Max_cycle;Signal;HPM_P1;HPM_P2
2021/12/20 00:01:54;;;;;;;0.10;0.10;;;;;;;;;;5034954;28;20381;-73
2021/12/20 00:04:20;;;;;;;0.10;0.10;;;;;;;;;;5030575;28;20117;-73
2021/12/20 00:06:46;;;;;;;0.00;0.00;;;;;;;;;;5037133;28;20108;-73
2021/12/20 00:09:12;;;;;;;0.05;0.05;;;;;;;;;;5029801;28;20029;-73
2021/12/20 00:11:38;;;;;;;2.45;2.05;;;;;;;;;;5041837;28;20022;-74
2021/12/20 00:14:04;;;;;;;0.10;0.10;;;;;;;;;;5045540;28;20056;-73
2021/12/20 00:16:30;;;;;;;0.00;0.00;;;;;;;;;;5035827;28;20481;-74
2021/12/20 00:18:56;;;;;;;0.10;0.10;;;;;;;;;;5030520;28;20104;-74
2021/12/20 00:21:22;;;;;;;0.10;0.10;;;;;;;;;;5033025;28;20104;-74
2021/12/20 00:23:48;;;;;;;0.00;0.00;;;;;;;;;;5035194;28;20036;-74
2021/12/20 00:26:13;;;;;;;0.30;0.30;;;;;;;;;;5028758;28;20041;-74
2021/12/20 00:28:39;;;;;;;0.10;0.10;;;;;;;;;;5036181;28;20021;-73
2021/12/20 00:31:05;;;;;;;0.00;0.00;;;;;;;;;;5046137;28;20467;-74
2021/12/20 00:33:33;;;;;;;0.00;0.00;;;;;;;;;;5036171;28;20446;-74
2021/12/20 00:36:08;;;;;;;0.10;0.10;;;;;;;;;;5029094;28;20455;-74
2021/12/20 00:41:25;;;;;;;0.20;0.20;;;;;;;;;;5030318;28;20041;-74
2021/12/20 00:43:51;;;;;;;0.10;0.10;;;;;;;;;;5042647;28;20018;-74
2021/12/20 00:46:17;;;;;;;0.10;0.10;;;;;;;;;;5039479;28;20129;-74
2021/12/20 00:48:43;;;;;;;0.10;0.10;;;;;;;;;;5043402;28;20510;-74
2021/12/20 00:51:09;;;;;;;0.00;0.00;;;;;;;;;;5047701;28;20061;-73
2021/12/20 00:53:35;;;;;;;0.10;0.10;;;;;;;;;;5031809;28;20029;-73
2021/12/20 00:56:01;;;;;;;0.05;0.05;;;;;;;;;;5035750;28;20083;-74
2021/12/20 00:58:28;;;;;;;0.40;0.40;;;;;;;;;;5046514;28;20029;-74
2021/12/20 01:00:55;;;;;;;2.92;0.77;;;;;;;;;;5043035;28;20021;-73
2021/12/20 01:03:21;;;;;;;0.20;0.20;;;;;;;;;;5044855;28;20104;-73
2021/12/20 01:05:48;;;;;;;9.63;2.47;;;;;;;;;;5041806;28;20374;-74
2021/12/20 01:08:15;;;;;;;0.10;0.10;;;;;;;;;;5045092;28;20028;-73
2021/12/20 01:10:46;;;;;;;3.00;0.52;;;;;;;;;;5032082;28;20121;-74
2021/12/20 01:13:15;;;;;;;0.00;0.00;;;;;;;;;;5038610;28;20492;-74
2021/12/20 01:15:47;;;;;;;0.40;0.40;;;;;;;;;;5034440;28;20092;-74
2021/12/20 01:18:12;;;;;;;;;;;;;;;;;;5033145;28;20480;-73
2021/12/20 01:20:41;;;;;;;0.10;0.10;;;;;;;;;;5042191;28;19916;-73
2021/12/20 01:23:07;;;;;;;0.20;0.20;;;;;;;;;;5049004;28;20045;-74
2021/12/20 01:25:33;;;;;;;0.10;0.10;;;;;;;;;;5034902;28;20050;-73
2021/12/20 01:27:59;;;;;;;0.10;0.10;;;;;;;;;;5037335;28;20040;-74
2021/12/20 01:30:27;;;;;;;0.22;0.22;;;;;;;;;;5039700;28;20376;-74
2021/12/20 01:32:53;;;;;;;0.00;0.00;;;;;;;;;;5044328;28;20033;-74
2021/12/20 01:35:20;;;;;;;0.10;0.10;;;;;;;;;;5041257;28;20036;-74
2021/12/20 01:37:46;;;;;;;0.00;0.00;;;;;;;;;;5045567;28;20116;-74
2021/12/20 01:40:13;;;;;;;0.10;0.10;;;;;;;;;;5048367;28;20167;-73
2021/12/20 01:42:39;;;;;;;0.00;0.00;;;;;;;;;;5031245;28;20029;-74
2021/12/20 01:45:06;;;;;;;0.45;0.35;;;;;;;;;;5032420;28;20036;-74
2021/12/20 01:47:36;;;;;;;0.10;0.10;;;;;;;;;;5041994;28;20488;-74
2021/12/20 01:50:10;;;;;;;0.20;0.20;;;;;;;;;;5040345;28;20083;-74
2021/12/20 01:52:41;;;;;;;0.10;0.10;;;;;;;;;;5033837;28;20040;-73
2021/12/20 01:55:09;;;;;;;0.10;0.10;;;;;;;;;;5033515;28;20113;-74
2021/12/20 01:57:35;;;;;;;0.08;0.08;;;;;;;;;;5042195;28;20083;-73
2021/12/20 02:00:01;;;;;;;0.10;0.10;;;;;;;;;;5035388;28;20404;-73
2021/12/20 02:02:27;;;;;;;0.10;0.10;;;;;;;;;;5041702;28;20053;-74
2021/12/20 02:05:00;;;;;;;0.10;0.10;;;;;;;;;;5032358;28;20396;-74
2021/12/20 02:07:47;;;;;;;0.10;0.10;;;;;;;;;;5032227;28;20052;-73
2021/12/20 02:10:13;;;;;;;0.00;0.00;;;;;;;;;;5045424;28;20147;-73
2021/12/20 02:12:39;;;;;;;0.10;0.10;;;;;;;;;;5043521;28;20134;-73
2021/12/20 02:15:05;;;;;;;0.93;0.85;;;;;;;;;;5036119;28;20033;-74
2021/12/20 02:17:31;;;;;;;0.00;0.00;;;;;;;;;;5034831;28;20034;-74
2021/12/20 02:20:00;;;;;;;0.17;0.17;;;;;;;;;;5034519;28;20036;-74
2021/12/20 02:22:26;;;;;;;0.10;0.10;;;;;;;;;;5043560;28;20036;-74
2021/12/20 02:24:52;;;;;;;0.08;0.08;;;;;;;;;;5031657;28;20030;-74
2021/12/20 02:27:20;;;;;;;0.10;0.10;;;;;;;;;;5034615;28;20044;-74
2021/12/20 02:30:01;;;;;;;0.25;0.25;;;;;;;;;;5036284;28;20025;-74
2021/12/20 02:37:56;;;;;;;0.10;0.10;;;;;;;;;;5031652;28;20163;-74
2021/12/20 02:40:23;;;;;;;0.10;0.10;;;;;;;;;;5034976;28;20104;-74
2021/12/20 02:42:51;;;;;;;0.15;0.15;;;;;;;;;;5041855;28;20030;-74
2021/12/20 02:45:17;;;;;;;0.20;0.20;;;;;;;;;;5030240;28;20477;-74
2021/12/20 02:47:45;;;;;;;0.05;0.05;;;;;;;;;;5037003;28;20025;-74
2021/12/20 02:50:12;;;;;;;0.20;0.20;;;;;;;;;;5039023;28;20036;-73
2021/12/20 02:52:38;;;;;;;0.10;0.10;;;;;;;;;;5038409;28;20080;-73
2021/12/20 02:55:05;;;;;;;0.10;0.10;;;;;;;;;;5046246;28;20254;-74
2021/12/20 02:57:34;;;;;;;0.95;0.95;;;;;;;;;;5036252;28;20103;-74
2021/12/20 02:59:59;;;;;;;7.20;0.68;;;;;;;;;;5038431;28;20120;-73
2021/12/20 03:02:25;;;;;;;0.35;0.35;;;;;;;;;;5037482;28;20485;-73
2021/12/20 03:04:51;;;;;;;0.00;0.00;;;;;;;;;;5034227;28;20033;-74
2021/12/20 03:07:23;;;;;;;0.10;0.10;;;;;;;;;;5051447;28;20329;-74
2021/12/20 03:09:54;;;;;;;3.97;0.98;;;;;;;;;;5047579;28;20100;-74
2021/12/20 03:12:23;;;;;;;0.10;0.10;;;;;;;;;;5036978;28;20057;-73
2021/12/20 03:14:51;;;;;;;0.30;0.30;;;;;;;;;;5048731;28;20064;-74
2021/12/20 03:17:17;;;;;;;0.05;0.05;;;;;;;;;;5036247;28;20068;-74
2021/12/20 03:19:43;;;;;;;0.03;0.03;;;;;;;;;;5032110;28;20056;-74
2021/12/20 03:22:10;;;;;;;0.10;0.10;;;;;;;;;;5036466;28;20068;-73
2021/12/20 03:24:36;;;;;;;0.15;0.15;;;;;;;;;;5043714;28;20140;-73
2021/12/20 03:27:02;;;;;;;0.00;0.00;;;;;;;;;;5032596;28;20133;-74
2021/12/20 03:29:28;;;;;;;0.20;0.20;;;;;;;;;;5030256;28;20025;-74
2021/12/20 03:31:54;;;;;;;0.10;0.10;;;;;;;;;;5029629;28;20087;-74
2021/12/20 03:34:20;;;;;;;0.08;0.08;;;;;;;;;;5040472;28;20029;-74
2021/12/20 03:36:46;;;;;;;0.05;0.05;;;;;;;;;;5030126;28;20040;-73
2021/12/20 03:39:12;;;;;;;0.10;0.10;;;;;;;;;;5042800;28;20030;-74
2021/12/20 03:41:39;;;;;;;0.10;0.10;;;;;;;;;;5035580;28;20074;-74
2021/12/20 03:44:05;;;;;;;0.10;0.10;;;;;;;;;;5047409;28;20033;-74
2021/12/20 03:46:31;;;;;;;0.10;0.10;;;;;;;;;;5031407;28;20021;-74
2021/12/20 03:48:57;;;;;;;0.10;0.10;;;;;;;;;;5039434;28;20033;-74
2021/12/20 03:51:23;;;;;;;0.10;0.10;;;;;;;;;;5043801;28;20040;-74
2021/12/20 03:53:49;;;;;;;0.00;0.00;;;;;;;;;;5033008;28;20029;-74
2021/12/20 03:56:15;;;;;;;0.10;0.10;;;;;;;;;;5036346;28;20033;-73
2021/12/20 03:58:41;;;;;;;0.00;0.00;;;;;;;;;;5043771;28;20029;-74
2021/12/20 04:01:10;;;;;;;0.10;0.10;;;;;;;;;;5033012;28;20037;-74
2021/12/20 04:03:36;;;;;;;0.08;0.08;;;;;;;;;;5037416;28;20420;-73
2021/12/20 04:06:03;;;;;;;0.17;0.17;;;;;;;;;;5038702;28;20033;-73
2021/12/20 04:08:29;;;;;;;0.10;0.10;;;;;;;;;;5039665;28;20079;-74
2021/12/20 04:10:54;;;;;;;0.10;0.10;;;;;;;;;;5032664;28;20500;-73
2021/12/20 04:13:20;;;;;;;0.10;0.10;;;;;;;;;;5033398;28;20043;-74
2021/12/20 04:15:46;;;;;;;0.08;0.08;;;;;;;;;;5047418;28;20025;-74
2021/12/20 04:18:12;;;;;;;0.00;0.00;;;;;;;;;;5033826;28;20487;-73
2021/12/20 04:20:38;;;;;;;0.10;0.10;;;;;;;;;;5051576;28;20036;-74
2021/12/20 04:23:04;;;;;;;0.10;0.10;;;;;;;;;;5037421;28;20075;-74
2021/12/20 04:25:30;;;;;;;0.00;0.00;;;;;;;;;;5028968;28;20033;-74
2021/12/20 04:27:56;;;;;;;0.10;0.10;;;;;;;;;;5034144;28;20030;-74
2021/12/20 04:30:22;;;;;;;0.10;0.10;;;;;;;;;;5028797;28;20060;-74
2021/12/20 04:32:48;;;;;;;0.20;0.20;;;;;;;;;;5043268;28;20061;-74
2021/12/20 04:35:15;;;;;;;0.00;0.00;;;;;;;;;;5040920;28;20107;-74
2021/12/20 04:37:43;;;;;;;0.10;0.10;;;;;;;;;;5046393;28;20071;-74
2021/12/20 04:40:14;;;;;;;0.10;0.10;;;;;;;;;;5041865;28;20472;-74
2021/12/20 04:42:40;;;;;;;0.10;0.10;;;;;;;;;;5043197;28;20481;-74
2021/12/20 04:45:07;;;;;;;0.10;0.10;;;;;;;;;;5032352;28;20034;-74
2021/12/20 04:47:32;;;;;;;0.08;0.08;;;;;;;;;;5047467;28;20049;-73
2021/12/20 04:49:59;;;;;;;0.00;0.00;;;;;;;;;;5034473;28;20030;-74
2021/12/20 04:52:25;;;;;;;0.00;0.00;;;;;;;;;;5035650;28;20033;-74
2021/12/20 04:54:51;;;;;;;0.10;0.10;;;;;;;;;;5042975;28;20539;-74
2021/12/20 04:57:17;;;;;;;0.08;0.08;;;;;;;;;;5036722;28;20040;-74
2021/12/20 04:59:43;;;;;;;0.17;0.17;;;;;;;;;;5046840;28;20029;-74
2021/12/20 05:02:09;;;;;;;0.08;0.08;;;;;;;;;;5049168;28;20388;-74
2021/12/20 05:04:35;;;;;;;0.10;0.10;;;;;;;;;;5039994;28;20026;-74
2021/12/20 05:07:03;;;;;;;0.28;0.28;;;;;;;;;;5032987;28;20033;-74
2021/12/20 05:09:35;;;;;;;0.30;0.30;;;;;;;;;;5033787;28;20041;-74
2021/12/20 05:12:10;;;;;;;0.10;0.10;;;;;;;;;;5031759;28;20039;-74
2021/12/20 05:14:36;;;;;;;0.10;0.10;;;;;;;;;;5041421;28;20057;-74
2021/12/20 05:17:02;;;;;;;0.45;0.45;;;;;;;;;;5038292;28;20075;-74
2021/12/20 05:19:28;;;;;;;0.00;0.00;;;;;;;;;;5040819;28;20029;-74
2021/12/20 05:21:56;;;;;;;0.10;0.10;;;;;;;;;;5049678;28;20037;-74
2021/12/20 05:24:22;;;;;;;0.00;0.00;;;;;;;;;;5036298;28;20400;-73
2021/12/20 05:26:48;;;;;;;0.10;0.10;;;;;;;;;;5047355;28;20055;-74
2021/12/20 05:29:13;;;;;;;0.13;0.13;;;;;;;;;;5039662;28;20029;-73
2021/12/20 05:31:39;;;;;;;0.10;0.10;;;;;;;;;;5036146;28;20022;-74
2021/12/20 05:34:05;;;;;;;0.10;0.10;;;;;;;;;;5034069;28;20353;-74
2021/12/20 05:36:31;;;;;;;0.10;0.10;;;;;;;;;;5033325;28;20109;-74
2021/12/20 05:38:57;;;;;;;0.20;0.20;;;;;;;;;;5040577;28;20120;-74
2021/12/20 05:41:23;;;;;;;0.08;0.08;;;;;;;;;;5036515;28;20036;-74
2021/12/20 05:43:49;;;;;;;0.00;0.00;;;;;;;;;;5041286;28;20021;-74
2021/12/20 05:46:15;;;;;;;0.10;0.10;;;;;;;;;;5043492;28;20025;-74
2021/12/20 05:48:41;;;;;;;0.10;0.10;;;;;;;;;;5037242;28;20029;-74
2021/12/20 05:51:08;;;;;;;0.38;0.38;;;;;;;;;;5035052;28;20074;-74
2021/12/20 05:53:33;;;;;;;0.00;0.00;;;;;;;;;;5035040;28;20116;-74
2021/12/20 05:55:59;;;;;;;0.10;0.10;;;;;;;;;;5038386;28;20108;-74
2021/12/20 05:58:25;;;;;;;0.10;0.10;;;;;;;;;;5039496;28;20112;-74
2021/12/20 06:00:51;;;;;;;0.10;0.10;;;;;;;;;;5035723;28;20044;-74
2021/12/20 06:03:17;;;;;;;0.30;0.30;;;;;;;;;;5041120;28;20037;-74
2021/12/20 06:05:43;;;;;;;0.10;0.10;;;;;;;;;;5042077;28;20053;-74
2021/12/20 06:08:10;;;;;;;0.10;0.10;;;;;;;;;;5047394;28;20429;-74
2021/12/20 06:10:36;;;;;;;0.17;0.17;;;;;;;;;;5033690;28;20029;-73
2021/12/20 06:13:05;;;;;;;0.10;0.10;;;;;;;;;;5038081;28;20031;-74
2021/12/20 06:15:31;;;;;;;0.10;0.10;;;;;;;;;;5030886;28;20167;-74
2021/12/20 06:17:57;;;;;;;0.10;0.10;;;;;;;;;;5046921;28;20132;-74
2021/12/20 06:20:23;;;;;;;0.10;0.10;;;;;;;;;;5034689;28;20142;-74
2021/12/20 06:22:49;;;;;;;0.10;0.10;;;;;;;;;;5043038;28;20491;-74
2021/12/20 06:25:15;;;;;;;0.10;0.10;;;;;;;;;;5037973;28;20041;-74
2021/12/20 06:27:42;;;;;;;0.10;0.10;;;;;;;;;;5032918;28;20480;-76
2021/12/20 06:30:09;;;;;;;0.17;0.17;;;;;;;;;;5037835;28;20032;-73
2021/12/20 06:32:35;;;;;;;0.10;0.10;;;;;;;;;;5037898;28;20075;-73
2021/12/20 06:35:01;;;;;;;0.10;0.10;;;;;;;;;;5037634;28;20464;-73
2021/12/20 06:37:27;;;;;;;0.10;0.10;;;;;;;;;;5037600;28;20082;-74
2021/12/20 06:39:53;;;;;;;0.08;0.08;;;;;;;;;;5034950;28;20025;-74
2021/12/20 06:42:19;;;;;;;0.43;0.43;;;;;;;;;;5039427;28;20037;-73
2021/12/20 06:44:45;;;;;;;0.13;0.13;;;;;;;;;;5031382;28;20551;-73
2021/12/20 06:47:11;;;;;;;0.20;0.20;;;;;;;;;;5032277;28;20027;-73
2021/12/20 06:49:37;;;;;;;0.10;0.10;;;;;;;;;;5034882;28;20400;-73
2021/12/20 06:52:03;;;;;;;0.10;0.10;;;;;;;;;;5042222;28;20068;-73
2021/12/20 06:54:29;;;;;;;0.10;0.10;;;;;;;;;;5036653;28;20484;-74
2021/12/20 06:56:55;;;;;;;0.35;0.35;;;;;;;;;;5032777;28;20060;-74
2021/12/20 06:59:22;;;;;;;0.10;0.10;;;;;;;;;;5037226;28;20056;-74
2021/12/20 07:01:48;;;;;;;0.08;0.08;;;;;;;;;;5031393;28;20033;-73
2021/12/20 07:04:15;;;;;;;0.10;0.10;;;;;;;;;;5040771;28;20021;-74
2021/12/20 07:06:41;;;;;;;0.20;0.20;;;;;;;;;;5038779;28;20146;-75
2021/12/20 07:09:07;;;;;;;0.20;0.20;;;;;;;;;;5038856;28;20044;-75
2021/12/20 07:11:33;;;;;;;0.10;0.10;;;;;;;;;;5031477;28;20025;-75
2021/12/20 07:13:59;;;;;;;0.10;0.10;;;;;;;;;;5043603;28;20108;-75
2021/12/20 07:16:25;;;;;;;0.10;0.10;;;;;;;;;;5034482;28;20108;-75
2021/12/20 07:18:51;;;;;;;0.10;0.10;;;;;;;;;;5031869;28;20188;-75
2021/12/20 07:21:17;;;;;;;0.10;0.10;;;;;;;;;;5032888;28;20464;-75
2021/12/20 07:23:43;;;;;;;0.20;0.20;;;;;;;;;;5033742;28;20033;-75
2021/12/20 07:26:12;;;;;;;0.22;0.22;;;;;;;;;;5042216;28;20518;-75
2021/12/20 07:28:40;;;;;;;0.17;0.17;;;;;;;;;;5041046;28;20036;-75
2021/12/20 07:31:06;;;;;;;1.23;0.93;;;;;;;;;;5034190;28;20094;-75
2021/12/20 07:33:32;;;;;;;0.10;0.10;;;;;;;;;;5032513;28;20072;-75
2021/12/20 07:35:58;;;;;;;0.30;0.30;;;;;;;;;;5040839;28;20033;-73
2021/12/20 07:38:24;;;;;;;0.25;0.25;;;;;;;;;;5049457;28;20064;-72
2021/12/20 07:40:50;;;;;;;0.40;0.40;;;;;;;;;;5043580;28;20028;-72
2021/12/20 07:43:17;;;;;;;2.60;0.52;;;;;;;;;;5035787;28;20033;-73
2021/12/20 07:45:43;;;;;;;0.20;0.20;;;;;;;;;;5031605;28;20018;-73
2021/12/20 07:48:09;;;;;;;0.28;0.28;;;;;;;;;;5043126;28;20049;-73
2021/12/20 07:50:35;;;;;;;0.10;0.10;;;;;;;;;;5037924;28;20065;-73
2021/12/20 07:53:01;;;;;;;0.10;0.10;;;;;;;;;;5045802;28;21572;-72
2021/12/20 07:55:27;;;;;;;0.10;0.10;;;;;;;;;;5035746;28;20037;-73
2021/12/20 07:57:53;;;;;;;0.20;0.20;;;;;;;;;;5036572;28;20492;-72
2021/12/20 08:00:19;;;;;;;0.20;0.20;;;;;;;;;;5039296;28;20063;-72
2021/12/20 08:02:46;;;;;;;0.05;0.05;;;;;;;;;;5037321;28;20500;-76
2021/12/20 08:05:14;;;;;;;1.13;1.02;;;;;;;;;;5033293;28;20029;-72
2021/12/20 08:07:40;;;;;;;0.10;0.10;;;;;;;;;;5035373;28;20048;-73
2021/12/20 08:10:07;;;;;;;1.13;1.13;;;;;;;;;;5032507;28;20032;-73
2021/12/20 08:12:33;;;;;;;0.32;0.32;;;;;;;;;;5034543;28;20052;-72
2021/12/20 08:14:59;;;;;;;0.10;0.10;;;;;;;;;;5032467;28;20029;-73
2021/12/20 08:17:25;;;;;;;0.13;0.13;;;;;;;;;;5032791;28;20035;-72
2021/12/20 08:19:51;;;;;;;0.10;0.10;;;;;;;;;;5039249;28;20493;-76
2021/12/20 08:22:17;;;;;;;0.38;0.32;;;;;;;;;;5041599;28;20364;-72
2021/12/20 08:24:42;;;;;;;0.40;0.40;;;;;;;;;;5039698;28;20795;-72
2021/12/20 08:27:08;;;;;;;0.10;0.10;;;;;;;;;;5036483;28;20522;-72
2021/12/20 08:29:34;;;;;;;0.10;0.10;;;;;;;;;;5036711;28;20062;-73
2021/12/20 08:32:02;;;;;;;0.15;0.15;;;;;;;;;;5042301;28;20395;-73
2021/12/20 08:34:31;;;;;;;0.10;0.10;;;;;;;;;;5038391;28;20033;-73
2021/12/20 08:36:57;;;;;;;1.85;1.75;;;;;;;;;;5037258;28;20033;-73
2021/12/20 08:39:23;;;;;;;0.03;0.03;;;;;;;;;;5039800;28;20040;-73
2021/12/20 08:41:49;;;;;;;0.20;0.20;;;;;;;;;;5035930;28;20029;-74
2021/12/20 08:44:15;;;;;;;0.10;0.10;;;;;;;;;;5042991;28;20033;-74
2021/12/20 08:46:41;;;;;;;0.10;0.10;;;;;;;;;;5039662;28;20028;-73
2021/12/20 08:49:08;;;;;;;0.30;0.30;;;;;;;;;;5024844;28;20033;-71
2021/12/20 08:51:34;;;;;;;0.00;0.00;;;;;;;;;;5031629;28;20103;-73
2021/12/20 08:54:00;;;;;;;0.10;0.10;;;;;;;;;;5030848;28;20541;-73
2021/12/20 08:56:26;;;;;;;0.30;0.30;;;;;;;;;;5048781;28;20028;-73
2021/12/20 08:58:52;;;;;;;0.00;0.00;;;;;;;;;;5040470;28;20048;-74
2021/12/20 09:01:18;;;;;;;0.10;0.10;;;;;;;;;;5028808;28;20034;-72
2021/12/20 09:03:44;;;;;;;0.20;0.20;;;;;;;;;;5034808;28;20152;-72
2021/12/20 09:06:11;;;;;;;0.20;0.20;;;;;;;;;;5031137;28;20018;-72
2021/12/20 09:08:39;;;;;;;0.15;0.15;;;;;;;;;;5031705;28;20029;-71
2021/12/20 09:11:05;;;;;;;0.00;0.00;;;;;;;;;;5029978;28;20037;-71
2021/12/20 09:13:31;;;;;;;0.10;0.10;;;;;;;;;;5031203;28;20528;-71
2021/12/20 09:15:59;;;;;;;0.10;0.10;;;;;;;;;;5029777;28;20022;-74
2021/12/20 09:18:28;;;;;;;0.10;0.10;;;;;;;;;;5041868;28;20047;-72
2021/12/20 09:20:55;;;;;;;0.63;0.63;;;;;;;;;;5040807;28;20029;-72
2021/12/20 09:23:22;;;;;;;0.10;0.10;;;;;;;;;;5032354;28;20033;-72
2021/12/20 09:25:48;;;;;;;0.10;0.10;;;;;;;;;;5032596;28;20048;-71
2021/12/20 09:28:15;;;;;;;0.00;0.00;;;;;;;;;;5032209;28;20386;-71
2021/12/20 09:30:42;;;;;;;0.00;0.00;;;;;;;;;;5035560;28;20731;-71
2021/12/20 09:33:08;;;;;;;0.10;0.10;;;;;;;;;;5042434;28;20151;-70
2021/12/20 09:35:35;;;;;;;0.10;0.10;;;;;;;;;;5047589;28;20051;-71
2021/12/20 09:38:05;;;;;;;0.52;0.52;;;;;;;;;;5035713;28;20025;-72
2021/12/20 09:40:33;;;;;;;0.00;0.00;;;;;;;;;;5036152;28;20110;-72
2021/12/20 09:43:05;;;;;;;0.20;0.20;;;;;;;;;;5036056;28;20083;-71
2021/12/20 09:45:32;;;;;;;0.10;0.10;;;;;;;;;;5043033;28;20037;-72
2021/12/20 09:47:58;;;;;;;0.10;0.10;;;;;;;;;;5034441;28;20029;-72
2021/12/20 09:50:24;;;;;;;0.20;0.20;;;;;;;;;;5036671;28;20140;-73
2021/12/20 09:52:51;;;;;;;0.00;0.00;;;;;;;;;;5035637;28;20451;-74
2021/12/20 09:55:17;;;;;;;1.08;0.80;;;;;;;;;;5037114;28;20055;-73
2021/12/20 09:57:43;;;;;;;0.10;0.10;;;;;;;;;;5033361;28;20033;-72
2021/12/20 10:00:10;;;;;;;0.08;0.08;;;;;;;;;;5039961;28;20052;-71
2021/12/20 10:02:36;;;;;;;1.67;1.58;;;;;;;;;;5033829;28;20029;-71
2021/12/20 10:05:03;;;;;;;0.05;0.05;;;;;;;;;;5030876;28;20109;-70
2021/12/20 10:07:29;;;;;;;0.63;0.63;;;;;;;;;;5047202;28;20033;-70
2021/12/20 10:09:56;;;;;;;0.10;0.10;;;;;;;;;;5047972;28;20410;-70
2021/12/20 10:12:22;;;;;;;0.40;0.20;;;;;;;;;;5040636;28;20450;-70
2021/12/20 10:14:52;;;;;;;0.10;0.10;;;;;;;;;;5044813;28;20112;-70
2021/12/20 10:17:18;;;;;;;0.30;0.30;;;;;;;;;;5039388;28;20116;-71
2021/12/20 10:19:44;;;;;;;0.00;0.00;;;;;;;;;;5038415;28;20116;-70
2021/12/20 10:22:28;;;;;;;0.10;0.10;;;;;;;;;;5037042;28;20499;-70
2021/12/20 10:24:55;;;;;;;0.00;0.00;;;;;;;;;;5037868;28;20037;-71
2021/12/20 10:27:31;;;;;;;0.10;0.10;;;;;;;;;;5032384;28;20041;-71
2021/12/20 10:29:57;;;;;;;2.10;1.90;;;;;;;;;;5044629;28;20504;-70
2021/12/20 10:32:42;;;;;;;0.10;0.10;;;;;;;;;;5032558;28;20068;-71
2021/12/20 10:35:27;;;;;;;0.00;0.00;;;;;;;;;;5034859;28;20207;-71
2021/12/20 10:37:57;;;;;;;0.57;0.57;;;;;;;;;;5040363;28;20062;-70
2021/12/20 10:40:23;;;;;;;0.20;0.20;;;;;;;;;;5039223;28;20025;-70
2021/12/20 10:42:50;;;;;;;1.25;1.08;;;;;;;;;;5035916;28;20024;-70
2021/12/20 10:45:19;;;;;;;0.00;0.00;;;;;;;;;;5034899;28;20056;-71
2021/12/20 10:47:46;;;;;;;0.75;0.63;;;;;;;;;;5038054;28;20036;-70
2021/12/20 10:50:28;;;;;;;0.00;0.00;;;;;;;;;;5032039;28;20142;-71
2021/12/20 10:53:10;;;;;;;0.00;0.00;;;;;;;;;;5039467;28;20036;-71
2021/12/20 10:55:36;;;;;;;;;;;;;;;;;;5031231;28;20116;-69
2021/12/20 10:58:41;;;;;;;0.00;0.00;;;;;;;;;;5029943;28;20003;-70
2021/12/20 11:01:13;;;;;;;0.98;0.98;;;;;;;;;;5013444;28;20037;-70
2021/12/20 11:03:41;;;;;;;0.15;0.15;;;;;;;;;;5017696;28;20124;-70
2021/12/20 11:11:28;;;;;;;0.03;0.03;;;;;;;;;;5036884;28;20040;-70
2021/12/20 11:13:54;;;;;;;0.00;0.00;;;;;;;;;;5040701;28;20026;-70
2021/12/20 11:16:28;;;;;;;0.30;0.20;;;;;;;;;;5029906;28;20022;-69
2021/12/20 11:19:06;;;;;;;0.10;0.10;;;;;;;;;;5030308;28;20029;-70
2021/12/20 11:21:32;;;;;;;0.45;0.45;;;;;;;;;;5037945;28;20075;-70
2021/12/20 11:24:01;;;;;;;0.10;0.10;;;;;;;;;;5039612;28;20029;-70
2021/12/20 11:26:27;;;;;;;0.10;0.10;;;;;;;;;;5048675;28;20041;-70
2021/12/20 11:28:56;;;;;;;0.00;0.00;;;;;;;;;;5049127;28;20582;-70
2021/12/20 11:31:23;;;;;;;0.10;0.10;;;;;;;;;;5031094;28;20040;-70
2021/12/20 11:33:49;;;;;;;0.30;0.30;;;;;;;;;;5030046;28;20080;-70
2021/12/20 11:36:15;;;;;;;0.00;0.00;;;;;;;;;;5032289;28;20484;-70
2021/12/20 11:38:42;;;;;;;0.00;0.00;;;;;;;;;;5030178;28;20022;-71
2021/12/20 11:41:08;;;;;;;0.10;0.10;;;;;;;;;;5031168;28;20484;-70
2021/12/20 11:43:34;;;;;;;0.45;0.43;;;;;;;;;;5040552;28;20077;-70
2021/12/20 11:46:00;;;;;;;0.20;0.20;;;;;;;;;;5030446;28;20041;-71
2021/12/20 11:48:29;;;;;;;0.22;0.15;;;;;;;;;;5044172;28;20543;-70
2021/12/20 11:50:58;;;;;;;0.08;0.08;;;;;;;;;;5041010;28;20036;-71
2021/12/20 11:53:24;;;;;;;0.40;0.40;;;;;;;;;;5034312;28;20029;-70
2021/12/20 11:55:51;;;;;;;2.15;1.95;;;;;;;;;;5038579;28;20435;-71
2021/12/20 11:58:25;;;;;;;6.18;0.75;;;;;;;;;;5032591;28;20021;-70
2021/12/20 12:00:53;;;;;;;0.00;0.00;;;;;;;;;;5041123;28;20056;-70
2021/12/20 12:03:21;;;;;;;0.30;0.30;;;;;;;;;;5034342;28;20125;-71
2021/12/20 12:05:47;;;;;;;0.10;0.10;;;;;;;;;;5029837;28;20878;-71
2021/12/20 12:08:32;;;;;;;0.30;0.30;;;;;;;;;;5038267;28;20108;-71
2021/12/20 12:11:07;;;;;;;0.00;0.00;;;;;;;;;;5035723;28;20490;-71
2021/12/20 12:14:07;;;;;;;2.30;0.70;;;;;;;;;;5036842;28;20036;-71
2021/12/20 12:16:53;;;;;;;0.55;0.55;;;;;;;;;;5043142;28;20059;-71
2021/12/20 12:19:38;;;;;;;1.50;0.90;;;;;;;;;;5032463;28;20076;-70
2021/12/20 12:22:24;;;;;;;0.10;0.10;;;;;;;;;;5033671;28;20037;-70
2021/12/20 12:24:50;;;;;;;2.25;0.55;;;;;;;;;;5031516;28;20446;-71
2021/12/20 12:27:43;;;;;;;0.10;0.10;;;;;;;;;;5040339;28;20495;-71
2021/12/20 12:30:13;;;;;;;0.00;0.00;;;;;;;;;;5038331;28;20029;-71
2021/12/20 12:32:59;;;;;;;0.45;0.45;;;;;;;;;;5036665;28;20038;-69
2021/12/20 12:35:41;;;;;;;0.20;0.20;;;;;;;;;;5029567;28;20045;-69
2021/12/20 12:38:16;;;;;;;2.40;0.52;;;;;;;;;;5039339;28;20492;-69
2021/12/20 12:40:45;;;;;;;0.10;0.10;;;;;;;;;;5034609;28;20113;-69
2021/12/20 12:43:11;;;;;;;0.13;0.13;;;;;;;;;;5036923;28;20045;-69
2021/12/20 12:45:53;;;;;;;0.50;0.50;;;;;;;;;;5031241;28;20040;-72
2021/12/20 12:48:35;;;;;;;0.00;0.00;;;;;;;;;;5043738;28;20075;-70
2021/12/20 12:51:27;;;;;;;0.10;0.10;;;;;;;;;;5031594;28;20021;-71
2021/12/20 12:53:54;;;;;;;0.85;0.82;;;;;;;;;;5037113;28;20048;-70
2021/12/20 12:56:26;;;;;;;0.22;0.17;;;;;;;;;;5036443;28;20029;-70
2021/12/20 12:59:19;;;;;;;0.35;0.35;;;;;;;;;;5036234;28;20116;-70
2021/12/20 13:01:54;;;;;;;9.75;0.50;;;;;;;;;;5038576;28;20120;-71
2021/12/20 13:04:20;;;;;;;0.52;0.22;;;;;;;;;;5044511;28;20146;-71
2021/12/20 13:06:46;;;;;;;0.00;0.00;;;;;;;;;;5040364;28;20493;-71
2021/12/20 13:09:12;;;;;;;0.32;0.20;;;;;;;;;;5036112;28;20021;-71
2021/12/20 13:11:38;;;;;;;0.32;0.32;;;;;;;;;;5031719;28;20026;-71
2021/12/20 13:14:11;;;;;;;0.08;0.08;;;;;;;;;;5049690;28;20089;-71
2021/12/20 13:16:43;;;;;;;0.20;0.20;;;;;;;;;;5033477;28;20111;-70
2021/12/20 13:19:10;;;;;;;;;;;;;;;;;;5037496;28;20034;-70
2021/12/20 13:21:49;;;;;;;0.00;0.00;;;;;;;;;;5036085;28;19991;-71
2021/12/20 13:24:15;;;;;;;0.10;0.10;;;;;;;;;;5044245;28;20185;-71
2021/12/20 13:26:41;;;;;;;0.90;0.90;;;;;;;;;;5044297;28;20052;-70
2021/12/20 13:29:14;;;;;;;0.00;0.00;;;;;;;;;;5043039;28;20017;-72
2021/12/20 13:31:46;;;;;;;0.05;0.05;;;;;;;;;;5038941;28;20071;-71
2021/12/20 13:34:14;;;;;;;0.10;0.10;;;;;;;;;;5035702;28;20032;-71
2021/12/20 13:36:44;;;;;;;0.00;0.00;;;;;;;;;;5036988;28;20029;-71
2021/12/20 13:39:11;;;;;;;0.15;0.15;;;;;;;;;;5031411;28;20037;-71
2021/12/20 13:41:41;;;;;;;0.00;0.00;;;;;;;;;;5047288;28;20028;-71
2021/12/20 13:44:08;;;;;;;0.00;0.00;;;;;;;;;;5041891;28;20025;-72
2021/12/20 13:49:07;;;;;;;0.08;0.08;;;;;;;;;;5033977;28;20040;-71
2021/12/20 13:51:39;;;;;;;0.85;0.57;;;;;;;;;;5029888;28;20028;-71
2021/12/20 13:54:28;;;;;;;0.10;0.10;;;;;;;;;;5022460;28;20212;-71
2021/12/20 13:57:00;;;;;;;0.00;0.00;;;;;;;;;;5033797;28;20437;-71
2021/12/20 13:59:27;;;;;;;0.20;0.20;;;;;;;;;;5038625;28;20109;-70
2021/12/20 14:01:53;;;;;;;0.00;0.00;;;;;;;;;;5035503;28;20030;-71
2021/12/20 14:04:35;;;;;;;0.50;0.50;;;;;;;;;;5034509;28;20041;-71
2021/12/20 14:07:02;;;;;;;0.00;0.00;;;;;;;;;;5039833;28;20096;-71
2021/12/20 14:09:39;;;;;;;0.00;0.00;;;;;;;;;;5031472;28;20104;-71
2021/12/20 14:12:08;;;;;;;0.45;0.45;;;;;;;;;;5037944;28;20052;-71
2021/12/20 14:14:34;;;;;;;0.00;0.00;;;;;;;;;;5039029;28;20120;-71
2021/12/20 14:17:01;;;;;;;0.63;0.63;;;;;;;;;;5037049;28;20107;-72
2021/12/20 14:19:45;;;;;;;0.00;0.00;;;;;;;;;;5041349;28;20025;-72
2021/12/20 14:22:11;;;;;;;0.10;0.10;;;;;;;;;;5036595;28;20068;-72
2021/12/20 14:24:40;;;;;;;0.10;0.10;;;;;;;;;;5033065;28;20045;-72
2021/12/20 14:27:06;;;;;;;2.17;0.93;;;;;;;;;;5039144;28;20037;-72
2021/12/20 14:29:32;;;;;;;0.10;0.10;;;;;;;;;;5042793;28;20044;-72
2021/12/20 14:32:00;;;;;;;0.00;0.00;;;;;;;;;;5035424;28;20029;-72
2021/12/20 14:34:35;;;;;;;0.00;0.00;;;;;;;;;;5026611;28;20029;-73
2021/12/20 14:37:09;;;;;;;0.15;0.15;;;;;;;;;;5031491;28;20443;-72
2021/12/20 14:39:44;;;;;;;1.10;1.02;;;;;;;;;;5040771;28;20039;-72
2021/12/20 14:42:10;;;;;;;0.10;0.10;;;;;;;;;;5044696;28;20468;-72
2021/12/20 14:44:46;;;;;;;0.17;0.17;;;;;;;;;;5035865;28;20032;-72
2021/12/20 14:47:21;;;;;;;0.03;0.03;;;;;;;;;;5043654;28;20174;-71
2021/12/20 14:50:04;;;;;;;0.08;0.08;;;;;;;;;;5035192;28;20484;-73
2021/12/20 14:52:31;;;;;;;0.40;0.40;;;;;;;;;;5026475;28;20029;-71
2021/12/20 14:54:58;;;;;;;0.30;0.30;;;;;;;;;;5045130;28;20117;-71
2021/12/20 14:57:25;;;;;;;0.10;0.10;;;;;;;;;;5034162;28;20047;-71
2021/12/20 14:59:52;;;;;;;0.10;0.10;;;;;;;;;;5034827;28;20091;-71
2021/12/20 15:02:29;;;;;;;0.00;0.00;;;;;;;;;;5033722;28;20035;-71
2021/12/20 15:04:56;;;;;;;0.40;0.40;;;;;;;;;;5028721;28;20083;-71
2021/12/20 15:07:22;;;;;;;1.50;1.02;;;;;;;;;;5030655;28;20591;-71